Time;durP1;ratioP1;P1;durP2;ratioP2;P2;SDS_P1;SDS_P2;PMS_P1;PMS_P2;Temp;Humidity;BMP_temperature;BMP_pressure;BME280_temperature;BME280_humidity;BME280_pressure;Samples;Min_cycle;Max_cycle;Signal;HPM_P1;HPM_P2
2022/10/15 00:00:46;;;;;;;22.08;10.15;;;11.60;99.90;;;;;;5095501;28;20079;-82
2022/10/15 00:03:13;;;;;;;22.27;10.25;;;11.70;99.90;;;;;;5111966;28;20052;-83
2022/10/15 00:05:41;;;;;;;24.58;11.35;;;11.60;99.90;;;;;;5068532;28;20068;-82
2022/10/15 00:08:09;;;;;;;31.92;13.68;;;11.70;99.90;;;;;;5091291;28;20091;-83
2022/10/15 00:10:37;;;;;;;27.67;12.10;;;11.70;99.90;;;;;;5091738;28;20068;-83
2022/10/15 00:13:04;;;;;;;26.75;12.32;;;11.70;99.90;;;;;;5091752;28;20059;-83
2022/10/15 00:15:31;;;;;;;23.92;11.52;;;11.70;99.90;;;;;;5075085;28;20484;-83
2022/10/15 00:17:58;;;;;;;24.52;11.65;;;11.70;99.90;;;;;;5075110;28;20094;-82
2022/10/15 00:20:24;;;;;;;25.13;11.73;;;11.70;99.90;;;;;;5091417;28;20090;-82
2022/10/15 00:22:51;;;;;;;26.67;12.23;;;11.70;99.90;;;;;;5074355;28;20040;-82
2022/10/15 00:25:18;;;;;;;26.08;11.95;;;11.70;99.90;;;;;;5091204;28;20500;-82
2022/10/15 00:27:45;;;;;;;25.70;12.02;;;11.70;99.90;;;;;;5057668;28;20047;-82
2022/10/15 00:30:12;;;;;;;26.88;12.65;;;11.70;99.90;;;;;;5074589;28;20041;-82
2022/10/15 00:32:39;;;;;;;26.83;12.63;;;11.70;99.90;;;;;;5074224;28;20043;-82
2022/10/15 00:35:06;;;;;;;33.55;11.82;;;11.60;99.90;;;;;;5058127;28;20032;-82
2022/10/15 00:37:32;;;;;;;29.20;12.50;;;11.60;99.90;;;;;;5067879;28;20047;-82
2022/10/15 00:39:59;;;;;;;25.35;11.93;;;11.60;99.90;;;;;;5094309;28;20036;-82
2022/10/15 00:42:26;;;;;;;26.73;12.10;;;11.60;99.90;;;;;;5094421;28;20040;-82
2022/10/15 00:44:58;;;;;;;26.50;12.27;;;11.60;99.90;;;;;;5110789;28;20044;-82
2022/10/15 00:47:37;;;;;;;25.85;12.10;;;11.60;99.90;;;;;;5110722;28;20040;-82
2022/10/15 00:50:12;;;;;;;27.17;12.38;;;11.60;99.90;;;;;;5110905;28;20510;-82
2022/10/15 00:53:02;;;;;;;23.27;11.83;;;11.60;99.90;;;;;;5110817;28;20048;-82
2022/10/15 00:55:39;;;;;;;29.88;12.85;;;11.60;99.90;;;;;;5110616;28;20048;-82
2022/10/15 00:58:21;;;;;;;25.75;12.35;;;11.60;99.90;;;;;;5110571;28;20389;-82
2022/10/15 01:00:48;;;;;;;28.80;12.52;;;11.60;99.90;;;;;;5127609;28;20505;-82
2022/10/15 01:03:14;;;;;;;32.20;13.10;;;11.80;99.90;;;;;;5093377;28;20046;-82
2022/10/15 01:05:44;;;;;;;22.40;10.52;;;11.70;99.90;;;;;;5127316;28;20385;-82
2022/10/15 01:08:12;;;;;;;27.08;12.45;;;11.70;99.90;;;;;;5110187;28;20454;-82
2022/10/15 01:10:44;;;;;;;27.00;12.80;;;11.60;99.90;;;;;;5090322;28;20507;-82
2022/10/15 01:13:28;;;;;;;27.33;12.15;;;11.60;99.90;;;;;;5090302;28;20036;-81
2022/10/15 01:16:04;;;;;;;22.70;11.38;;;11.60;99.90;;;;;;5106913;28;20037;-82
2022/10/15 01:18:36;;;;;;;28.73;12.63;;;11.60;99.90;;;;;;5108713;28;20124;-82
2022/10/15 01:21:05;;;;;;;25.83;12.90;;;11.60;99.90;;;;;;5110293;28;20043;-82
2022/10/15 01:24:14;;;;;;;27.50;11.85;;;11.70;99.90;;;;;;5127090;28;20081;-82
2022/10/15 01:26:59;;;;;;;28.85;12.70;;;11.60;99.90;;;;;;5110341;28;20047;-81
2022/10/15 01:30:06;;;;;;;28.90;11.60;;;11.60;99.90;;;;;;5110283;28;20070;-82
2022/10/15 01:32:44;;;;;;;31.65;13.00;;;11.70;99.90;;;;;;5089954;28;20086;-82
2022/10/15 01:35:35;;;;;;;26.58;11.98;;;11.60;99.90;;;;;;5089877;28;20044;-82
2022/10/15 01:38:23;;;;;;;29.55;12.38;;;11.60;99.90;;;;;;5089950;28;20044;-82
2022/10/15 01:40:56;;;;;;;26.58;11.55;;;11.60;99.90;;;;;;5100486;28;20040;-82
2022/10/15 01:43:50;;;;;;;30.33;13.05;;;11.60;99.90;;;;;;5110307;28;20054;-82
2022/10/15 01:46:28;;;;;;;27.10;12.10;;;11.70;99.90;;;;;;5109584;28;20047;-82
2022/10/15 01:48:58;;;;;;;29.27;13.63;;;11.60;99.90;;;;;;5109485;28;22176;-82
2022/10/15 01:51:27;;;;;;;28.80;12.65;;;11.70;99.90;;;;;;5093311;28;20072;-82
2022/10/15 01:53:54;;;;;;;27.65;12.95;;;11.70;99.90;;;;;;5093489;28;20070;-82
2022/10/15 01:56:24;;;;;;;29.02;13.18;;;11.70;99.90;;;;;;5076908;28;20032;-82
2022/10/15 01:58:54;;;;;;;31.20;13.00;;;11.60;99.90;;;;;;5109905;28;20491;-82
2022/10/15 02:01:21;;;;;;;25.00;12.30;;;11.70;99.90;;;;;;5106237;28;20067;-83
2022/10/15 02:03:50;;;;;;;26.83;13.55;;;11.60;99.90;;;;;;5089628;28;20072;-82
2022/10/15 02:06:30;;;;;;;29.23;13.13;;;11.60;99.90;;;;;;5089222;28;20058;-82
2022/10/15 02:09:26;;;;;;;28.63;13.75;;;11.60;99.90;;;;;;5088944;28;20056;-82
2022/10/15 02:12:13;;;;;;;31.92;13.93;;;11.60;99.90;;;;;;5089103;28;20086;-82
2022/10/15 02:14:53;;;;;;;31.05;14.82;;;11.60;99.90;;;;;;5104523;28;20047;-82
2022/10/15 02:17:30;;;;;;;31.35;14.85;;;11.60;99.90;;;;;;5089514;28;20106;-82
2022/10/15 02:20:11;;;;;;;34.88;15.75;;;11.50;99.90;;;;;;5089295;28;20047;-82
2022/10/15 02:23:03;;;;;;;39.67;15.27;;;11.50;99.90;;;;;;5089085;28;20045;-82
2022/10/15 02:25:34;;;;;;;32.15;14.32;;;11.50;99.90;;;;;;5100748;28;20473;-82
2022/10/15 02:28:03;;;;;;;37.25;15.57;;;11.50;99.90;;;;;;5088834;28;20040;-82
2022/10/15 02:30:31;;;;;;;32.13;14.88;;;11.50;99.90;;;;;;5088982;28;20040;-82
2022/10/15 02:32:59;;;;;;;38.80;13.23;;;11.50;99.90;;;;;;5092462;28;20028;-82
2022/10/15 02:35:26;;;;;;;33.85;14.70;;;11.50;99.90;;;;;;5092611;28;20555;-82
2022/10/15 02:37:57;;;;;;;33.92;14.88;;;11.50;99.90;;;;;;5092745;28;20130;-82
2022/10/15 02:40:27;;;;;;;33.35;15.00;;;11.50;99.90;;;;;;5109490;28;20051;-82
2022/10/15 02:42:55;;;;;;;37.38;15.25;;;11.50;99.90;;;;;;5109060;28;20071;-82
2022/10/15 02:45:21;;;;;;;36.03;15.55;;;11.50;99.90;;;;;;5075979;28;20042;-82
2022/10/15 02:47:48;;;;;;;34.67;14.77;;;11.50;99.90;;;;;;5092424;28;20048;-82
2022/10/15 02:50:15;;;;;;;38.10;15.65;;;11.50;99.90;;;;;;5125623;28;20504;-81
2022/10/15 02:52:41;;;;;;;34.67;14.95;;;11.50;99.90;;;;;;5088900;28;20489;-82
2022/10/15 02:55:08;;;;;;;34.42;14.93;;;11.50;99.90;;;;;;5105614;28;20040;-82
2022/10/15 02:57:35;;;;;;;31.70;14.93;;;11.50;99.90;;;;;;5072649;28;20105;-82
2022/10/15 03:00:02;;;;;;;39.15;15.82;;;11.50;99.90;;;;;;5089101;28;20051;-82
2022/10/15 03:02:29;;;;;;;33.13;14.77;;;11.50;99.90;;;;;;5075633;28;20115;-82
2022/10/15 03:04:56;;;;;;;29.85;14.40;;;11.60;99.90;;;;;;5092128;28;20128;-82
2022/10/15 03:07:22;;;;;;;36.13;15.30;;;11.50;99.90;;;;;;5108734;28;20053;-82
2022/10/15 03:09:49;;;;;;;36.22;15.15;;;11.50;99.90;;;;;;5092525;28;20040;-82
2022/10/15 03:12:16;;;;;;;36.05;15.10;;;11.50;99.90;;;;;;5091893;28;20047;-81
2022/10/15 03:14:42;;;;;;;35.35;14.68;;;11.50;99.90;;;;;;5108931;28;20508;-82
2022/10/15 03:17:09;;;;;;;33.53;14.73;;;11.50;99.90;;;;;;5075341;28;20044;-82
2022/10/15 03:19:36;;;;;;;32.47;14.60;;;11.50;99.90;;;;;;5092379;28;20040;-82
2022/10/15 03:22:02;;;;;;;33.85;14.20;;;11.50;99.90;;;;;;5075392;28;20080;-82
2022/10/15 03:24:29;;;;;;;30.48;14.43;;;11.50;99.90;;;;;;5075542;28;20051;-82
2022/10/15 03:26:56;;;;;;;36.20;15.32;;;11.50;99.90;;;;;;5095662;28;20036;-81
2022/10/15 03:29:22;;;;;;;30.58;14.10;;;11.50;99.90;;;;;;5095885;28;20048;-82
2022/10/15 03:31:49;;;;;;;32.80;14.10;;;11.50;99.90;;;;;;5112426;28;20040;-82
2022/10/15 03:34:16;;;;;;;36.97;14.45;;;11.50;99.90;;;;;;5095624;28;20120;-82
2022/10/15 03:36:43;;;;;;;32.83;14.30;;;11.50;99.90;;;;;;5092419;28;20527;-82
2022/10/15 03:39:12;;;;;;;30.38;14.02;;;11.50;99.90;;;;;;5075445;28;20033;-82
2022/10/15 03:41:39;;;;;;;29.10;14.00;;;11.50;99.90;;;;;;5092266;28;20036;-82
2022/10/15 03:44:07;;;;;;;34.28;14.95;;;11.50;99.90;;;;;;5092125;28;20085;-82
2022/10/15 03:46:33;;;;;;;32.22;13.82;;;11.50;99.90;;;;;;5058784;28;20121;-82
2022/10/15 03:49:01;;;;;;;32.35;14.32;;;11.50;99.90;;;;;;5103628;28;20074;-82
2022/10/15 03:51:28;;;;;;;32.55;13.38;;;11.50;99.90;;;;;;5095219;28;20065;-82
2022/10/15 03:53:54;;;;;;;31.67;14.40;;;11.50;99.90;;;;;;5112022;28;20396;-82
2022/10/15 03:56:21;;;;;;;33.22;13.20;;;11.50;99.90;;;;;;5095026;28;20043;-82
2022/10/15 03:58:48;;;;;;;34.58;13.43;;;11.50;99.90;;;;;;5091202;28;20128;-82
2022/10/15 04:01:17;;;;;;;32.72;13.45;;;11.50;99.90;;;;;;5091272;28;20044;-82
2022/10/15 04:03:44;;;;;;;32.40;12.68;;;11.50;99.90;;;;;;5091614;28;20059;-82
2022/10/15 04:06:11;;;;;;;33.30;14.07;;;11.50;99.90;;;;;;5074866;28;20041;-82
2022/10/15 04:08:37;;;;;;;35.20;12.98;;;11.50;99.90;;;;;;5074621;28;20052;-82
2022/10/15 04:11:04;;;;;;;37.45;13.23;;;11.50;99.90;;;;;;5093908;28;20045;-82
2022/10/15 04:13:31;;;;;;;26.08;12.23;;;11.50;99.90;;;;;;5058613;28;20444;-82
2022/10/15 04:15:57;;;;;;;25.95;13.52;;;11.50;99.90;;;;;;5107846;28;20036;-82
2022/10/15 04:18:24;;;;;;;30.90;12.35;;;11.50;99.90;;;;;;5091213;28;20049;-82
2022/10/15 04:20:51;;;;;;;30.50;12.77;;;11.50;99.90;;;;;;5088794;28;20127;-82
2022/10/15 04:23:17;;;;;;;31.75;12.82;;;11.50;99.90;;;;;;5074580;28;20047;-82
2022/10/15 04:25:45;;;;;;;32.28;12.68;;;11.50;99.90;;;;;;5091189;28;20135;-82
2022/10/15 04:28:11;;;;;;;34.67;13.65;;;11.50;99.90;;;;;;5091015;28;20037;-82
2022/10/15 04:30:38;;;;;;;33.75;14.02;;;11.40;99.90;;;;;;5074984;28;20550;-82
2022/10/15 04:33:05;;;;;;;29.05;12.80;;;11.50;99.90;;;;;;5073829;28;20055;-82
2022/10/15 04:35:33;;;;;;;33.40;11.70;;;11.50;99.90;;;;;;5091101;28;20037;-82
2022/10/15 04:38:01;;;;;;;30.70;13.27;;;11.50;99.90;;;;;;5090452;28;20678;-82
2022/10/15 04:40:28;;;;;;;29.20;13.68;;;11.50;99.90;;;;;;5090819;28;20063;-82
2022/10/15 04:42:54;;;;;;;34.80;12.68;;;11.50;99.90;;;;;;5074439;28;20047;-82
2022/10/15 04:45:21;;;;;;;26.17;11.93;;;11.50;99.90;;;;;;5107358;28;20045;-82
2022/10/15 04:47:48;;;;;;;33.85;13.27;;;11.50;99.90;;;;;;5093814;28;20040;-82
2022/10/15 04:50:15;;;;;;;31.35;13.48;;;11.50;99.90;;;;;;5077931;28;20426;-82
2022/10/15 04:52:41;;;;;;;31.30;13.23;;;11.50;99.90;;;;;;5077708;28;20093;-82
2022/10/15 04:55:09;;;;;;;27.25;11.95;;;11.40;99.90;;;;;;5094211;28;20097;-82
2022/10/15 04:57:36;;;;;;;30.63;12.18;;;11.40;99.90;;;;;;5094382;28;20512;-82
2022/10/15 05:00:03;;;;;;;31.77;12.35;;;11.40;99.90;;;;;;5077707;28;20043;-82
2022/10/15 05:02:31;;;;;;;31.17;12.68;;;11.50;99.90;;;;;;5093835;28;20052;-81
2022/10/15 05:04:58;;;;;;;32.40;12.50;;;11.40;99.90;;;;;;5094096;28;20039;-81
2022/10/15 05:07:25;;;;;;;31.73;12.10;;;11.50;99.90;;;;;;5093727;28;20801;-82
2022/10/15 05:09:51;;;;;;;34.10;12.82;;;11.40;99.90;;;;;;5093675;28;20044;-82
2022/10/15 05:12:19;;;;;;;34.17;13.18;;;11.40;99.90;;;;;;5093543;28;20036;-82
2022/10/15 05:14:45;;;;;;;32.13;12.60;;;11.40;99.90;;;;;;5090627;28;20068;-82
2022/10/15 05:17:15;;;;;;;29.13;13.02;;;11.40;99.90;;;;;;5073936;28;20072;-82
2022/10/15 05:19:41;;;;;;;29.88;12.80;;;11.30;99.90;;;;;;5090408;28;20151;-82
2022/10/15 05:22:08;;;;;;;30.30;12.27;;;11.30;99.90;;;;;;5073964;28;20131;-82
2022/10/15 05:24:35;;;;;;;32.67;13.45;;;11.30;99.90;;;;;;5076823;28;20043;-82
2022/10/15 05:27:01;;;;;;;30.92;12.90;;;11.30;99.90;;;;;;5110464;28;20780;-82
2022/10/15 05:29:28;;;;;;;32.13;12.65;;;11.30;99.90;;;;;;5110177;28;20036;-82
2022/10/15 05:31:55;;;;;;;33.25;13.57;;;11.30;99.90;;;;;;5093601;28;20032;-82
2022/10/15 05:34:22;;;;;;;30.52;13.68;;;11.30;99.90;;;;;;5093159;28;20446;-82
2022/10/15 05:36:49;;;;;;;40.53;13.70;;;11.30;99.90;;;;;;5110181;28;20036;-82
2022/10/15 05:39:15;;;;;;;35.30;13.52;;;11.30;99.90;;;;;;5089740;28;20044;-82
2022/10/15 05:41:42;;;;;;;33.70;13.57;;;11.30;99.90;;;;;;5073833;28;20079;-82
2022/10/15 05:44:09;;;;;;;30.17;12.75;;;11.30;99.90;;;;;;5090031;28;20086;-82
2022/10/15 05:46:35;;;;;;;36.42;14.35;;;11.20;99.90;;;;;;5072881;28;20037;-82
2022/10/15 05:49:02;;;;;;;30.15;13.43;;;11.30;99.90;;;;;;5056441;28;20045;-82
2022/10/15 05:51:29;;;;;;;35.50;13.70;;;11.20;99.90;;;;;;5089440;28;20068;-82
2022/10/15 05:53:57;;;;;;;32.90;13.93;;;11.30;99.90;;;;;;5056562;28;20071;-82
2022/10/15 05:56:25;;;;;;;41.28;13.73;;;11.30;99.90;;;;;;5084160;28;20046;-82
2022/10/15 05:58:51;;;;;;;31.10;13.45;;;11.20;99.90;;;;;;5089058;28;20074;-82
2022/10/15 06:01:19;;;;;;;31.30;13.05;;;11.20;99.90;;;;;;5072571;28;20079;-82
2022/10/15 06:03:45;;;;;;;39.67;13.55;;;11.30;99.90;;;;;;5092235;28;20050;-82
2022/10/15 06:06:19;;;;;;;40.53;15.18;;;11.20;99.90;;;;;;5109078;28;20476;-82
2022/10/15 06:08:47;;;;;;;39.95;13.75;;;11.20;99.90;;;;;;5109025;28;20054;-82
2022/10/15 06:11:14;;;;;;;34.45;13.85;;;11.20;99.90;;;;;;5092778;28;20075;-82
2022/10/15 06:13:42;;;;;;;38.33;14.30;;;11.20;99.90;;;;;;5092346;28;20051;-82
2022/10/15 06:16:10;;;;;;;40.75;13.90;;;11.20;99.90;;;;;;5108966;28;20149;-82
2022/10/15 06:18:38;;;;;;;34.03;14.35;;;11.20;99.90;;;;;;5109070;28;20082;-82
2022/10/15 06:21:06;;;;;;;37.78;14.10;;;11.20;99.90;;;;;;5125763;28;20050;-82
2022/10/15 06:23:33;;;;;;;36.00;14.18;;;11.30;99.90;;;;;;5109359;28;20075;-83
2022/10/15 06:26:05;;;;;;;29.40;13.77;;;11.20;99.90;;;;;;5088884;28;20090;-82
2022/10/15 06:28:32;;;;;;;36.75;15.20;;;11.20;99.90;;;;;;5070052;28;20039;-83
2022/10/15 06:30:59;;;;;;;32.30;13.88;;;11.20;99.90;;;;;;5092700;28;20028;-82
2022/10/15 06:33:27;;;;;;;36.85;13.43;;;11.20;99.90;;;;;;5108745;28;20403;-83
2022/10/15 06:35:54;;;;;;;37.63;13.65;;;11.30;99.90;;;;;;5092689;28;20123;-83
2022/10/15 06:38:20;;;;;;;33.10;14.25;;;11.20;99.90;;;;;;5109546;28;20036;-83
2022/10/15 06:40:47;;;;;;;32.85;13.27;;;11.20;99.90;;;;;;5109270;28;20047;-82
2022/10/15 06:43:14;;;;;;;36.78;13.82;;;11.30;99.90;;;;;;5092333;28;20047;-83
2022/10/15 06:45:41;;;;;;;31.85;13.10;;;11.30;99.90;;;;;;5092212;28;20047;-83
2022/10/15 06:48:08;;;;;;;36.30;14.75;;;11.30;99.90;;;;;;5074664;28;20574;-83
2022/10/15 06:50:36;;;;;;;33.92;13.88;;;11.30;99.90;;;;;;5082468;28;20400;-83
2022/10/15 06:53:03;;;;;;;31.63;13.85;;;11.30;99.90;;;;;;5100345;28;20032;-83
2022/10/15 06:55:30;;;;;;;37.50;14.27;;;11.40;99.90;;;;;;5089100;28;20043;-83
2022/10/15 06:57:57;;;;;;;32.90;14.57;;;11.40;99.90;;;;;;5069444;28;20511;-83
2022/10/15 07:00:25;;;;;;;35.00;14.50;;;11.30;99.90;;;;;;5084769;28;20036;-83
2022/10/15 07:02:52;;;;;;;33.92;14.30;;;11.40;99.90;;;;;;5089159;28;20097;-82
2022/10/15 07:05:19;;;;;;;34.25;14.45;;;11.40;99.90;;;;;;5085244;28;20040;-82
2022/10/15 07:07:56;;;;;;;33.50;14.18;;;11.40;99.90;;;;;;5099066;28;20056;-83
2022/10/15 07:10:25;;;;;;;35.83;14.55;;;11.40;99.90;;;;;;5105814;28;20055;-83
2022/10/15 07:12:53;;;;;;;38.85;14.77;;;11.50;99.90;;;;;;5087330;28;20093;-83
2022/10/15 07:15:21;;;;;;;34.35;14.35;;;11.50;99.90;;;;;;5105884;28;20036;-84
2022/10/15 07:17:52;;;;;;;35.75;14.02;;;11.50;99.90;;;;;;5092600;28;20072;-84
2022/10/15 07:20:19;;;;;;;37.50;15.02;;;11.50;99.90;;;;;;5092603;28;20433;-84
2022/10/15 07:22:45;;;;;;;37.80;14.05;;;11.50;99.90;;;;;;5092631;28;20044;-84
2022/10/15 07:25:12;;;;;;;38.50;14.88;;;11.60;99.90;;;;;;5073242;28;20040;-84
2022/10/15 07:27:39;;;;;;;36.42;14.65;;;11.60;99.90;;;;;;5075675;28;20036;-84
2022/10/15 07:30:07;;;;;;;35.97;14.43;;;11.60;99.90;;;;;;5075800;28;20044;-83
2022/10/15 07:32:34;;;;;;;39.22;14.15;;;11.70;99.90;;;;;;5064714;28;20064;-84
2022/10/15 07:35:01;;;;;;;31.95;14.20;;;11.70;99.90;;;;;;5129684;28;20074;-84
2022/10/15 07:37:28;;;;;;;34.97;13.85;;;11.80;99.90;;;;;;5095908;28;20040;-84
2022/10/15 07:39:55;;;;;;;34.55;14.23;;;11.80;99.90;;;;;;5095647;28;20071;-84
2022/10/15 07:42:21;;;;;;;36.25;14.60;;;11.80;99.90;;;;;;5095682;28;20039;-84
2022/10/15 07:44:48;;;;;;;33.47;14.25;;;11.90;99.90;;;;;;5078880;28;20071;-84
2022/10/15 07:47:15;;;;;;;38.15;14.75;;;11.90;99.90;;;;;;5091885;28;20128;-84
2022/10/15 07:49:41;;;;;;;37.22;15.25;;;11.90;99.90;;;;;;5058716;28;20048;-84
2022/10/15 07:52:08;;;;;;;38.33;14.65;;;11.90;99.90;;;;;;5088594;28;20492;-84
2022/10/15 07:54:35;;;;;;;34.05;14.25;;;12.00;99.90;;;;;;5082654;28;20036;-84
2022/10/15 07:57:02;;;;;;;33.20;13.48;;;12.00;99.90;;;;;;5081986;28;20568;-84
2022/10/15 07:59:29;;;;;;;34.63;15.75;;;12.00;99.90;;;;;;5101599;28;20040;-84
2022/10/15 08:01:55;;;;;;;33.83;14.20;;;12.00;99.90;;;;;;5078311;28;20036;-84
2022/10/15 08:04:22;;;;;;;35.95;14.15;;;12.10;99.90;;;;;;5112282;28;20044;-85
2022/10/15 08:06:49;;;;;;;36.95;14.68;;;12.10;99.90;;;;;;5066720;28;20040;-84
2022/10/15 08:09:16;;;;;;;35.05;14.68;;;12.20;99.90;;;;;;5075093;28;20049;-84
2022/10/15 08:11:43;;;;;;;38.42;14.57;;;12.20;99.90;;;;;;5106764;28;20044;-83
2022/10/15 08:14:09;;;;;;;32.08;14.10;;;12.20;99.90;;;;;;5058425;28;20622;-83
2022/10/15 08:16:36;;;;;;;33.25;13.43;;;12.30;99.90;;;;;;5058135;28;20721;-82
2022/10/15 08:19:03;;;;;;;37.35;13.52;;;12.30;99.90;;;;;;5091783;28;20388;-83
2022/10/15 08:21:29;;;;;;;37.22;14.10;;;12.30;99.90;;;;;;5075131;28;20098;-83
2022/10/15 08:23:56;;;;;;;32.15;13.90;;;12.40;99.90;;;;;;5074761;28;20076;-83
2022/10/15 08:26:25;;;;;;;32.88;13.68;;;12.40;99.90;;;;;;5091451;28;20229;-83
2022/10/15 08:28:52;;;;;;;32.60;14.55;;;12.40;99.90;;;;;;5094825;28;20153;-84
2022/10/15 08:31:18;;;;;;;29.67;13.52;;;12.50;99.90;;;;;;5094664;28;20505;-83
2022/10/15 08:33:45;;;;;;;33.88;13.65;;;12.50;99.90;;;;;;5094751;28;20108;-83
2022/10/15 08:36:12;;;;;;;32.80;13.88;;;12.60;99.90;;;;;;5095171;28;20036;-84
2022/10/15 08:38:38;;;;;;;31.55;14.02;;;12.60;99.90;;;;;;5111284;28;20048;-83
2022/10/15 08:41:30;;;;;;;30.27;13.50;;;12.70;99.90;;;;;;5111327;28;20054;-84
2022/10/15 08:43:58;;;;;;;35.03;14.50;;;12.80;99.90;;;;;;5111562;28;20039;-84
2022/10/15 08:46:34;;;;;;;33.33;14.35;;;12.80;99.90;;;;;;5094587;28;20044;-84
2022/10/15 08:49:01;;;;;;;;;;;12.90;99.90;;;;;;5111167;28;20545;-84
2022/10/15 08:51:39;;;;;;;30.00;13.13;;;12.90;99.90;;;;;;5127547;28;19937;-85
2022/10/15 08:54:14;;;;;;;34.42;14.45;;;12.90;99.90;;;;;;5108929;28;20042;-84
2022/10/15 08:56:46;;;;;;;29.23;13.47;;;12.90;99.90;;;;;;5098602;28;20065;-84
2022/10/15 08:59:39;;;;;;;29.35;12.77;;;13.00;99.90;;;;;;5100582;28;20037;-85
2022/10/15 09:02:29;;;;;;;29.63;13.02;;;13.00;99.90;;;;;;5090759;28;20044;-84
2022/10/15 09:05:21;;;;;;;38.15;14.48;;;13.10;99.90;;;;;;5090398;28;20644;-84
2022/10/15 09:07:58;;;;;;;31.23;13.95;;;13.20;99.90;;;;;;5089984;28;20505;-82
2022/10/15 09:10:42;;;;;;;32.92;13.80;;;13.30;99.90;;;;;;5107383;28;20044;-82
2022/10/15 09:13:35;;;;;;;34.15;14.15;;;13.40;99.90;;;;;;5090350;28;20040;-82
2022/10/15 09:16:18;;;;;;;32.08;13.77;;;13.40;99.90;;;;;;5121821;28;20049;-82
2022/10/15 09:18:48;;;;;;;33.95;14.10;;;13.50;99.90;;;;;;5090190;28;20573;-81
2022/10/15 09:21:15;;;;;;;26.73;13.18;;;13.60;99.90;;;;;;5092369;28;20084;-82
2022/10/15 09:23:43;;;;;;;37.97;14.93;;;13.60;99.90;;;;;;5093880;28;20540;-82
2022/10/15 09:26:35;;;;;;;28.63;13.40;;;13.60;99.90;;;;;;5110333;28;20127;-82
2022/10/15 09:29:16;;;;;;;29.10;13.65;;;13.70;99.90;;;;;;5110157;28;20040;-82
2022/10/15 09:31:49;;;;;;;30.70;14.13;;;13.80;99.90;;;;;;5110187;28;20071;-82
2022/10/15 09:34:41;;;;;;;27.48;13.25;;;13.90;99.90;;;;;;5110219;28;20123;-82
2022/10/15 09:37:24;;;;;;;30.13;13.27;;;14.00;99.90;;;;;;5110195;28;20043;-82
2022/10/15 09:40:15;;;;;;;31.73;13.93;;;14.10;99.90;;;;;;5109957;28;20047;-82
2022/10/15 09:42:43;;;;;;;31.15;13.75;;;14.10;99.90;;;;;;5110076;28;20123;-81
2022/10/15 09:45:13;;;;;;;29.05;13.50;;;14.20;99.90;;;;;;5109673;28;20052;-82
2022/10/15 09:47:42;;;;;;;30.20;13.38;;;14.20;99.90;;;;;;5126714;28;20097;-83
2022/10/15 09:50:11;;;;;;;25.45;12.80;;;14.20;99.90;;;;;;5109885;28;20043;-82
2022/10/15 09:52:56;;;;;;;31.67;14.07;;;14.30;99.90;;;;;;5110027;28;20032;-82
2022/10/15 09:55:45;;;;;;;31.33;15.50;;;14.30;99.90;;;;;;5126845;28;20531;-83
2022/10/15 09:58:19;;;;;;;30.70;13.82;;;14.30;99.90;;;;;;5109848;28;20385;-82
2022/10/15 10:00:57;;;;;;;25.92;13.52;;;14.30;99.90;;;;;;5109875;28;20488;-83
2022/10/15 10:03:27;;;;;;;25.58;13.25;;;14.20;99.90;;;;;;5109438;28;20121;-82
2022/10/15 10:06:09;;;;;;;28.15;13.95;;;14.20;99.90;;;;;;5109634;28;20047;-82
2022/10/15 10:08:56;;;;;;;25.05;12.75;;;14.20;99.90;;;;;;5109546;28;20059;-81
2022/10/15 10:11:24;;;;;;;22.60;11.48;;;14.10;99.90;;;;;;5109781;28;20040;-82
2022/10/15 10:13:55;;;;;;;26.08;11.98;;;14.00;99.90;;;;;;5089969;28;20036;-82
2022/10/15 10:16:22;;;;;;;22.02;10.98;;;14.00;99.90;;;;;;5089863;28;20499;-82
2022/10/15 10:19:12;;;;;;;22.35;10.90;;;14.00;99.90;;;;;;5073077;28;20040;-82
2022/10/15 10:21:41;;;;;;;19.60;10.02;;;14.00;99.90;;;;;;5089757;28;20046;-81
2022/10/15 10:24:30;;;;;;;21.45;11.20;;;14.00;99.90;;;;;;5105724;28;20039;-82
2022/10/15 10:26:58;;;;;;;19.88;10.05;;;14.00;99.90;;;;;;5126381;28;20058;-82
2022/10/15 10:29:26;;;;;;;23.23;11.07;;;13.90;99.90;;;;;;5092833;28;20043;-82
2022/10/15 10:31:52;;;;;;;23.35;10.25;;;13.90;99.90;;;;;;5109443;28;20094;-82
2022/10/15 10:34:28;;;;;;;25.30;11.35;;;13.80;99.90;;;;;;5108465;28;20040;-83
2022/10/15 10:36:55;;;;;;;26.00;11.55;;;13.80;99.90;;;;;;5109593;28;20528;-82
2022/10/15 10:39:28;;;;;;;23.58;11.02;;;13.70;99.90;;;;;;5092693;28;20484;-82
2022/10/15 10:42:06;;;;;;;25.08;11.18;;;13.60;99.90;;;;;;5106030;28;20043;-83
2022/10/15 10:44:45;;;;;;;24.50;10.80;;;13.50;99.90;;;;;;5082187;28;20036;-82
2022/10/15 10:47:17;;;;;;;30.05;10.63;;;13.50;99.90;;;;;;5107197;28;20123;-82
2022/10/15 10:49:47;;;;;;;22.90;10.35;;;13.50;99.90;;;;;;5092347;28;20048;-82
2022/10/15 10:52:24;;;;;;;24.55;10.27;;;13.40;99.90;;;;;;5108979;28;20036;-83
2022/10/15 10:55:21;;;;;;;25.60;10.05;;;13.40;99.90;;;;;;5109109;28;20044;-83
2022/10/15 10:57:49;;;;;;;22.58;9.75;;;13.40;99.90;;;;;;5109351;28;20483;-82
2022/10/15 11:00:41;;;;;;;23.05;10.00;;;13.30;99.90;;;;;;5109349;28;20068;-82
2022/10/15 11:03:22;;;;;;;19.73;8.90;;;13.30;99.90;;;;;;5105750;28;20046;-82
2022/10/15 11:05:56;;;;;;;29.10;10.98;;;13.30;99.90;;;;;;5090807;28;20063;-83
2022/10/15 11:08:55;;;;;;;26.75;10.85;;;13.30;99.90;;;;;;5108976;28;20084;-82
2022/10/15 11:11:31;;;;;;;26.05;10.82;;;13.30;99.90;;;;;;5074096;28;20240;-82
2022/10/15 11:14:44;;;;;;;26.90;10.80;;;13.40;99.90;;;;;;5109086;28;20107;-82
2022/10/15 11:17:29;;;;;;;22.48;9.23;;;13.50;99.90;;;;;;5109361;28;20054;-82
2022/10/15 11:20:09;;;;;;;24.77;10.18;;;13.60;99.90;;;;;;5109069;28;20043;-83
2022/10/15 11:22:55;;;;;;;24.55;10.25;;;13.70;99.90;;;;;;5109091;28;20102;-83
2022/10/15 11:25:40;;;;;;;23.95;9.15;;;13.90;99.90;;;;;;5125788;28;20044;-82
2022/10/15 11:28:47;;;;;;;23.92;10.00;;;14.10;99.90;;;;;;5125639;28;20119;-82
2022/10/15 11:31:13;;;;;;;;;;;14.30;99.90;;;;;;5094201;28;20058;-83
2022/10/15 11:33:46;;;;;;;19.83;8.68;;;14.40;99.90;;;;;;5125599;28;20391;-83
2022/10/15 11:36:26;;;;;;;22.30;9.13;;;14.40;99.90;;;;;;5108866;28;20039;-82
2022/10/15 11:39:16;;;;;;;18.60;9.00;;;14.50;99.90;;;;;;5108954;28;20048;-83
2022/10/15 11:41:58;;;;;;;19.70;8.00;;;14.60;99.90;;;;;;5103144;28;20044;-85
2022/10/15 11:45:00;;;;;;;15.70;7.85;;;14.70;99.90;;;;;;5108539;28;20504;-83
2022/10/15 11:47:49;;;;;;;17.88;9.10;;;14.70;99.90;;;;;;5115199;28;20036;-84
2022/10/15 11:50:25;;;;;;;16.17;7.78;;;14.70;99.90;;;;;;5111908;28;20040;-84
2022/10/15 11:53:20;;;;;;;17.23;7.88;;;14.80;99.90;;;;;;5112078;28;20040;-84
2022/10/15 11:56:13;;;;;;;15.45;8.02;;;14.80;99.90;;;;;;5108685;28;20090;-84
2022/10/15 11:58:50;;;;;;;14.88;7.43;;;14.80;99.90;;;;;;5092063;28;20041;-83
2022/10/15 12:01:36;;;;;;;16.52;7.78;;;14.80;99.90;;;;;;5091813;28;20076;-83
2022/10/15 12:04:23;;;;;;;14.45;7.22;;;14.70;99.90;;;;;;5094737;28;20040;-84
2022/10/15 12:06:53;;;;;;;14.65;7.22;;;14.70;99.90;;;;;;5091635;28;20041;-84
2022/10/15 12:09:33;;;;;;;16.90;7.30;;;14.70;99.90;;;;;;5091339;28;20056;-83
2022/10/15 12:12:04;;;;;;;17.05;7.47;;;14.70;99.90;;;;;;5091948;28;20397;-83
2022/10/15 12:14:46;;;;;;;13.57;7.18;;;14.80;99.90;;;;;;5097601;28;20036;-83
2022/10/15 12:17:46;;;;;;;14.25;6.95;;;14.70;99.90;;;;;;5111525;28;20036;-82
2022/10/15 12:20:21;;;;;;;12.57;6.55;;;14.80;99.90;;;;;;5111483;28;20446;-82
2022/10/15 12:22:51;;;;;;;13.18;6.70;;;14.80;99.90;;;;;;5112303;28;20051;-83
2022/10/15 12:25:40;;;;;;;13.25;6.80;;;14.70;99.90;;;;;;5111496;28;20523;-82
2022/10/15 12:28:07;;;;;;;13.07;7.03;;;14.80;99.90;;;;;;5128570;28;20552;-83
2022/10/15 12:30:36;;;;;;;16.80;7.53;;;14.70;99.90;;;;;;5111349;28;20043;-83
2022/10/15 12:33:22;;;;;;;14.43;6.85;;;14.80;99.90;;;;;;5095269;28;20096;-83
2022/10/15 12:36:08;;;;;;;14.75;7.45;;;14.80;99.90;;;;;;5111494;28;20115;-83
2022/10/15 12:38:35;;;;;;;;;;;14.70;99.90;;;;;;5111820;28;20044;-83
2022/10/15 12:41:11;;;;;;;11.27;6.55;;;14.80;99.90;;;;;;5111667;28;19915;-83
2022/10/15 12:43:43;;;;;;;12.77;6.45;;;14.90;99.90;;;;;;5110965;28;20043;-83
2022/10/15 12:46:12;;;;;;;14.68;6.50;;;14.90;99.90;;;;;;5093831;28;20051;-83
2022/10/15 12:48:41;;;;;;;12.43;6.07;;;15.00;99.90;;;;;;5088102;28;20052;-83
2022/10/15 12:51:20;;;;;;;12.30;6.13;;;15.10;99.90;;;;;;5105737;28;20047;-83
2022/10/15 12:53:49;;;;;;;12.63;6.15;;;15.20;99.90;;;;;;5111099;28;20036;-82